createdAt,value
2023-04-29T00:02:17.477Z,2.00
2023-04-29T00:04:45.314Z,1.98
2023-04-29T00:07:15.938Z,2.22
2023-04-29T00:09:43.319Z,2.22
2023-04-29T00:12:11.201Z,2.30
2023-04-29T00:14:38.654Z,2.10
2023-04-29T00:17:06.157Z,2.10
2023-04-29T00:19:33.955Z,2.08
2023-04-29T00:22:01.373Z,1.92
2023-04-29T00:24:28.774Z,2.12
2023-04-29T00:26:56.840Z,2.30
2023-04-29T00:29:24.293Z,2.08
2023-04-29T00:31:51.886Z,2.30
2023-04-29T00:34:19.518Z,2.30
2023-04-29T00:36:46.989Z,2.22
2023-04-29T00:39:15.447Z,1.95
2023-04-29T00:41:44.226Z,2.40
2023-04-29T00:44:12.524Z,2.05
2023-04-29T00:46:40.221Z,2.00
2023-04-29T00:49:08.328Z,1.90
2023-04-29T00:51:36.930Z,2.03
2023-04-29T00:54:04.753Z,1.83
2023-04-29T00:56:34.406Z,1.83
2023-04-29T00:59:02.886Z,1.98
2023-04-29T01:01:30.623Z,2.03
2023-04-29T01:03:58.997Z,1.62
2023-04-29T01:06:51.650Z,1.80
2023-04-29T01:09:29.564Z,2.35
2023-04-29T01:12:18.894Z,2.00
2023-04-29T01:14:49.994Z,2.10
2023-04-29T01:17:18.771Z,2.00
2023-04-29T01:19:51.124Z,1.70
2023-04-29T01:22:21.930Z,1.92
2023-04-29T01:24:49.780Z,1.80
2023-04-29T01:27:30.721Z,2.15
2023-04-29T01:31:06.805Z,1.70
2023-04-29T01:33:42.420Z,1.85
2023-04-29T01:36:22.509Z,2.05
2023-04-29T01:39:16.632Z,1.92
2023-04-29T01:42:08.821Z,2.33
2023-04-29T01:44:36.660Z,2.12
2023-04-29T01:47:04.714Z,1.98
2023-04-29T01:49:35.755Z,1.77
2023-04-29T01:52:03.514Z,1.80
2023-04-29T01:54:32.126Z,1.92
2023-04-29T01:57:00.604Z,1.80
2023-04-29T01:59:30.209Z,2.00
2023-04-29T02:01:59.700Z,2.08
2023-04-29T02:04:28.689Z,2.00
2023-04-29T02:06:56.197Z,2.00
2023-04-29T02:09:24.040Z,2.12
2023-04-29T02:11:52.062Z,2.05
2023-04-29T02:14:19.543Z,2.40
2023-04-29T02:16:47.164Z,1.90
2023-04-29T02:19:15.250Z,1.70
2023-04-29T02:21:43.086Z,1.85
2023-04-29T02:24:10.834Z,1.92
2023-04-29T02:26:38.903Z,2.10
2023-04-29T02:29:06.319Z,2.25
2023-04-29T02:31:33.832Z,1.80
2023-04-29T02:34:01.712Z,1.80
2023-04-29T02:36:29.256Z,1.80
2023-04-29T02:38:57.167Z,1.35
2023-04-29T02:41:25.854Z,1.77
2023-04-29T02:43:53.371Z,2.30
2023-04-29T02:46:21.022Z,1.73
2023-04-29T02:48:48.880Z,1.87
2023-04-29T02:51:16.403Z,1.58
2023-04-29T02:53:44.201Z,1.73
2023-04-29T02:56:12.261Z,1.98
2023-04-29T02:58:39.691Z,2.00
2023-04-29T03:01:07.233Z,2.20
2023-04-29T03:03:35.023Z,1.92
2023-04-29T03:06:02.549Z,2.12
2023-04-29T03:08:30.032Z,1.90
2023-04-29T03:10:57.847Z,1.85
2023-04-29T03:13:25.586Z,1.67
2023-04-29T03:15:53.047Z,1.95
2023-04-29T03:18:21.001Z,2.00
2023-04-29T03:20:48.590Z,1.90
2023-04-29T03:23:16.011Z,1.80
2023-04-29T03:25:43.909Z,1.87
2023-04-29T03:28:11.325Z,1.73
2023-04-29T03:30:38.894Z,1.85
2023-04-29T03:33:07.516Z,2.20
2023-04-29T03:35:35.096Z,2.22
2023-04-29T03:38:06.242Z,2.05
2023-04-29T03:40:34.161Z,1.98
2023-04-29T03:43:01.663Z,1.70
2023-04-29T03:45:29.438Z,1.90
2023-04-29T03:47:57.388Z,1.73
2023-04-29T03:50:26.075Z,1.67
2023-04-29T03:52:53.791Z,1.67
2023-04-29T03:55:21.564Z,1.70
2023-04-29T03:57:48.965Z,1.75
2023-04-29T04:00:17.135Z,1.70
2023-04-29T04:02:45.482Z,2.10
2023-04-29T04:05:13.595Z,1.90
2023-04-29T04:07:41.941Z,1.95
2023-04-29T04:10:13.769Z,2.08
2023-04-29T04:12:43.923Z,1.62
2023-04-29T04:15:12.245Z,2.10
2023-04-29T04:17:39.818Z,1.75
2023-04-29T04:20:08.073Z,2.08
2023-04-29T04:22:36.411Z,1.90
2023-04-29T04:25:05.266Z,1.95
2023-04-29T04:27:32.970Z,1.73
2023-04-29T04:30:01.422Z,1.70
2023-04-29T04:32:29.270Z,1.50
2023-04-29T04:34:57.420Z,1.60
2023-04-29T04:37:25.129Z,2.00
2023-04-29T04:39:53.531Z,1.60
2023-04-29T04:42:22.687Z,1.70
2023-04-29T04:44:50.647Z,1.83
2023-04-29T04:47:19.214Z,1.92
2023-04-29T04:49:47.124Z,1.80
2023-04-29T04:52:14.927Z,1.83
2023-04-29T04:54:46.437Z,1.62
2023-04-29T04:57:14.258Z,1.23
2023-04-29T04:59:43.355Z,1.42
2023-04-29T05:02:13.538Z,1.62
2023-04-29T05:04:41.056Z,1.95
2023-04-29T05:07:09.031Z,1.90
2023-04-29T05:09:37.643Z,1.37
2023-04-29T05:12:05.156Z,1.85
2023-04-29T05:14:34.401Z,1.30
2023-04-29T05:17:02.907Z,1.40
2023-04-29T05:19:30.699Z,1.30
2023-04-29T05:21:58.461Z,1.30
2023-04-29T05:24:26.349Z,1.98
2023-04-29T05:26:54.201Z,1.83
2023-04-29T05:29:21.983Z,1.50
2023-04-29T05:31:50.420Z,1.55
2023-04-29T05:34:18.522Z,1.50
2023-04-29T05:36:46.704Z,1.70
2023-04-29T05:39:15.147Z,1.73
2023-04-29T05:41:43.375Z,1.70
2023-04-29T05:44:11.269Z,1.65
2023-04-29T05:46:38.825Z,1.60
2023-04-29T05:49:06.448Z,1.80
2023-04-29T05:51:34.118Z,1.60
2023-04-29T05:54:01.661Z,1.55
2023-04-29T05:56:29.480Z,2.00
2023-04-29T05:58:57.161Z,1.52
2023-04-29T06:01:24.626Z,1.70
2023-04-29T06:03:52.659Z,1.75
2023-04-29T06:06:22.712Z,1.77
2023-04-29T06:08:51.685Z,1.70
2023-04-29T06:11:19.647Z,1.98
2023-04-29T06:13:47.109Z,1.58
2023-04-29T06:16:15.088Z,2.20
2023-04-29T06:18:42.557Z,2.15
2023-04-29T06:21:12.085Z,1.80
2023-04-29T06:23:39.825Z,1.67
2023-04-29T06:26:07.516Z,1.80
2023-04-29T06:28:35.004Z,2.10
2023-04-29T06:31:02.992Z,2.10
2023-04-29T06:33:31.212Z,1.80
2023-04-29T06:35:58.694Z,1.60
2023-04-29T06:38:28.334Z,1.30
2023-04-29T06:41:00.557Z,1.65
2023-04-29T06:43:28.575Z,1.98
2023-04-29T06:45:56.181Z,1.65
2023-04-29T06:48:24.019Z,1.50
2023-04-29T06:50:52.722Z,1.70
2023-04-29T06:53:20.311Z,1.60
2023-04-29T06:55:47.981Z,1.65
2023-04-29T06:58:16.363Z,1.65
2023-04-29T07:00:48.260Z,1.92
2023-04-29T07:03:16.453Z,2.00
2023-04-29T07:05:45.564Z,2.40
2023-04-29T07:08:13.371Z,2.17
2023-04-29T07:10:41.697Z,2.30
2023-04-29T07:13:09.232Z,4.03
2023-04-29T07:15:36.770Z,4.60
2023-04-29T07:18:05.480Z,3.20
2023-04-29T07:20:33.176Z,2.97
2023-04-29T07:23:00.973Z,2.90
2023-04-29T07:25:29.892Z,3.10
2023-04-29T07:27:57.780Z,3.12
2023-04-29T07:30:25.743Z,2.65
2023-04-29T07:32:53.627Z,2.80
2023-04-29T07:35:21.635Z,3.10
2023-04-29T07:37:49.202Z,3.10
2023-04-29T07:40:16.986Z,2.53
2023-04-29T07:42:44.439Z,2.87
2023-04-29T07:45:13.929Z,2.40
2023-04-29T07:47:41.903Z,2.87
2023-04-29T07:50:09.687Z,2.62
2023-04-29T07:55:07.109Z,2.80
2023-04-29T07:57:34.538Z,2.97
2023-04-29T08:00:02.372Z,2.90
2023-04-29T08:02:30.885Z,2.92
2023-04-29T08:04:59.156Z,2.58
2023-04-29T08:07:26.953Z,3.03
2023-04-29T08:09:54.512Z,2.70
2023-04-29T08:12:22.261Z,2.90
2023-04-29T08:14:49.692Z,2.65
2023-04-29T08:17:17.123Z,2.67
2023-04-29T08:19:44.847Z,3.03
2023-04-29T08:22:14.138Z,3.00
2023-04-29T08:24:42.870Z,3.00
2023-04-29T08:27:10.770Z,2.60
2023-04-29T08:29:38.330Z,3.12
2023-04-29T08:32:06.099Z,3.00
2023-04-29T08:34:36.142Z,3.30
2023-04-29T08:37:03.596Z,3.50
2023-04-29T08:39:31.276Z,2.97
2023-04-29T08:41:59.940Z,3.12
2023-04-29T08:44:27.952Z,3.33
2023-04-29T08:46:55.623Z,3.17
2023-04-29T08:49:23.322Z,2.80
2023-04-29T08:51:51.788Z,3.28
2023-04-29T08:54:19.223Z,3.00
2023-04-29T08:56:49.743Z,3.03
2023-04-29T08:59:17.510Z,3.87
2023-04-29T09:01:49.667Z,3.40
2023-04-29T09:04:36.031Z,3.90
2023-04-29T09:07:03.480Z,3.28
2023-04-29T09:09:31.240Z,3.80
2023-04-29T09:11:59.057Z,3.37
2023-04-29T09:14:26.624Z,3.28
2023-04-29T09:16:54.327Z,3.53
2023-04-29T09:19:32.183Z,3.03
2023-04-29T09:22:00.413Z,3.05
2023-04-29T09:24:28.527Z,3.20
2023-04-29T09:26:56.082Z,3.30
2023-04-29T09:29:24.102Z,3.20
2023-04-29T09:31:54.394Z,3.28
2023-04-29T09:34:52.967Z,4.00
2023-04-29T09:37:27.985Z,3.95
2023-04-29T09:39:55.566Z,4.82
2023-04-29T09:42:23.267Z,4.10
2023-04-29T09:44:52.328Z,4.57
2023-04-29T09:47:20.376Z,4.60
2023-04-29T09:49:50.067Z,4.20
2023-04-29T09:52:18.247Z,4.60
2023-04-29T09:54:45.776Z,4.10
2023-04-29T09:57:16.470Z,3.90
2023-04-29T09:59:44.039Z,4.32
2023-04-29T10:02:16.661Z,4.03
2023-04-29T10:04:48.686Z,3.62
2023-04-29T10:07:17.032Z,4.18
2023-04-29T10:09:46.727Z,4.45
2023-04-29T10:12:18.491Z,3.83
2023-04-29T10:15:06.832Z,3.22
2023-04-29T10:17:40.518Z,4.03
2023-04-29T10:20:09.083Z,4.10
2023-04-29T10:22:45.888Z,3.40
2023-04-29T10:25:15.271Z,3.87
2023-04-29T10:27:44.355Z,3.70
2023-04-29T10:30:13.481Z,3.55
2023-04-29T10:35:20.102Z,4.25
2023-04-29T10:37:48.845Z,3.65
2023-04-29T10:40:28.045Z,3.80
2023-04-29T10:42:55.838Z,3.95
2023-04-29T10:45:32.611Z,3.70
2023-04-29T10:48:03.194Z,3.60
2023-04-29T10:50:31.507Z,3.78
2023-04-29T10:53:01.857Z,3.53
2023-04-29T10:55:29.656Z,3.87
2023-04-29T10:57:57.329Z,4.40
2023-04-29T11:00:29.110Z,3.30
2023-04-29T11:02:57.368Z,4.25
2023-04-29T11:05:35.655Z,3.78
2023-04-29T11:08:23.194Z,3.40
2023-04-29T11:10:54.028Z,3.37
2023-04-29T11:13:28.743Z,4.25
2023-04-29T11:16:08.231Z,3.67
2023-04-29T11:18:36.896Z,3.37
2023-04-29T11:21:07.319Z,3.60
2023-04-29T11:23:35.659Z,3.95
2023-04-29T11:26:03.571Z,3.53
2023-04-29T11:28:31.653Z,3.70
2023-04-29T11:30:59.276Z,3.60
2023-04-29T11:33:27.883Z,2.97
2023-04-29T11:39:00.435Z,3.30
2023-04-29T11:41:28.377Z,3.87
2023-04-29T11:43:59.725Z,3.75
2023-04-29T11:46:30.216Z,3.42
2023-04-29T11:48:58.434Z,3.42
2023-04-29T11:51:25.898Z,3.72
2023-04-29T11:53:53.364Z,3.92
2023-04-29T11:56:25.433Z,3.17
2023-04-29T11:59:01.315Z,3.15
2023-04-29T12:01:29.020Z,4.00
2023-04-29T12:04:00.818Z,4.05
2023-04-29T12:06:30.128Z,3.22
2023-04-29T12:09:01.704Z,3.33
2023-04-29T12:11:29.228Z,3.67
2023-04-29T12:13:57.416Z,3.15
2023-04-29T12:16:25.773Z,3.50
2023-04-29T12:18:53.507Z,3.70
2023-04-29T21:02:52.883Z,6.86
2023-04-29T21:05:21.018Z,7.60
2023-04-29T21:07:49.347Z,7.43
2023-04-29T21:10:17.897Z,7.75
2023-04-29T21:12:45.656Z,8.30
2023-04-29T21:15:13.138Z,7.70
2023-04-29T21:17:40.593Z,7.20
2023-04-29T21:20:08.766Z,7.00
2023-04-29T21:22:36.189Z,7.53
2023-04-29T21:25:05.312Z,7.03
2023-04-29T21:27:32.947Z,7.20
2023-04-29T21:30:00.387Z,7.87
2023-04-29T21:32:27.879Z,7.10
2023-04-29T21:34:55.591Z,6.85
2023-04-29T21:37:23.130Z,6.95
2023-04-29T21:39:50.888Z,7.18
2023-04-29T21:42:22.415Z,7.15
2023-04-29T21:44:49.832Z,7.30
2023-04-29T21:47:17.251Z,6.68
2023-04-29T21:49:44.956Z,6.78
2023-04-29T21:52:12.818Z,6.57
2023-04-29T21:54:40.253Z,6.50
2023-04-29T21:57:08.041Z,6.85
2023-04-29T21:59:35.653Z,6.20
2023-04-29T22:02:14.149Z,6.35
2023-04-29T22:04:42.001Z,6.35
2023-04-29T22:07:09.420Z,6.40
2023-04-29T22:09:36.891Z,6.07
2023-04-29T22:12:04.640Z,6.57
2023-04-29T22:14:32.062Z,6.53
2023-04-29T22:16:59.476Z,6.18
2023-04-29T22:19:30.058Z,6.25
2023-04-29T22:21:57.521Z,5.95
2023-04-29T22:24:24.954Z,5.60
2023-04-29T22:26:52.650Z,5.75
2023-04-29T22:29:20.894Z,5.65
2023-04-29T22:31:48.312Z,5.40
2023-04-29T22:34:16.025Z,5.90
2023-04-29T22:36:43.392Z,6.12
2023-04-29T22:39:10.791Z,5.93
2023-04-29T22:41:38.515Z,5.78
2023-04-29T22:44:05.951Z,5.75
2023-04-29T22:46:33.607Z,6.12
2023-04-29T22:49:01.439Z,5.35
2023-04-29T22:51:28.855Z,5.97
2023-04-29T22:53:56.268Z,5.50
2023-04-29T22:56:24.634Z,5.53
2023-04-29T22:58:52.113Z,5.87
2023-04-29T23:01:19.561Z,5.65
2023-04-29T23:03:47.199Z,5.80
2023-04-29T23:06:14.660Z,5.80
2023-04-29T23:08:42.321Z,5.62
2023-04-29T23:11:10.832Z,5.60
2023-04-29T23:13:38.225Z,5.05
2023-04-29T23:16:06.694Z,5.25
2023-04-29T23:18:35.672Z,5.72
2023-04-29T23:21:03.606Z,5.30
2023-04-29T23:23:31.004Z,5.45
2023-04-29T23:25:58.736Z,5.47
2023-04-29T23:28:26.187Z,5.47
2023-04-29T23:30:54.532Z,5.20
2023-04-29T23:33:22.323Z,5.50
2023-04-29T23:35:50.704Z,5.57
2023-04-29T23:38:18.771Z,4.70
2023-04-29T23:40:46.731Z,5.60
2023-04-29T23:43:17.271Z,5.10
2023-04-29T23:45:45.860Z,5.53
2023-04-29T23:48:13.992Z,5.40
2023-04-29T23:50:41.468Z,5.70
2023-04-29T23:53:08.904Z,5.25
2023-04-29T23:55:36.618Z,5.82
2023-04-29T23:58:04.101Z,5.28
